Time,TemperatureF,DewpointF,PressureIn,WindDirection,WindDirectionDegrees,WindSpeedMPH,WindSpeedGustMPH,Humidity,HourlyPrecipIn,Conditions,Clouds,dailyrainin,SoftwareType,DateUTC
2013-03-08 00:03:00,60.6,14.2,28.44,SW,225,0.0,0.0,16,0.00,,BKN220,0.00,VWS V14.01,2013-03-08 07:03:00,
2013-03-08 00:08:00,60.2,13.9,28.44,SW,225,0.0,0.0,16,0.00,,BKN220,0.00,VWS V14.01,2013-03-08 07:08:00,
2013-03-08 00:14:00,60.1,13.8,28.44,SW,225,0.0,0.0,16,0.00,,BKN220,0.00,VWS V14.01,2013-03-08 07:14:00,
2013-03-08 00:19:00,60.2,13.9,28.44,ESE,112,0.0,4.7,16,0.00,,BKN220,0.00,VWS V14.01,2013-03-08 07:19:00,
2013-03-08 00:24:00,60.2,13.9,28.41,SSW,202,4.0,10.7,16,0.00,,BKN220,0.00,VWS V14.01,2013-03-08 07:24:00,
2013-03-08 00:29:00,60.6,14.2,28.41,East,90,0.0,2.7,16,0.00,,BKN220,0.00,VWS V14.01,2013-03-08 07:29:00,
2013-03-08 00:34:00,60.6,14.2,28.41,SSW,202,0.0,0.0,16,0.00,,BKN220,0.00,VWS V14.01,2013-03-08 07:34:00,
2013-03-08 00:39:00,60.6,14.2,28.44,SE,135,3.4,9.4,16,0.00,,BKN220,0.00,VWS V14.01,2013-03-08 07:39:00,
2013-03-08 00:44:00,60.6,14.2,28.44,North,0,3.4,3.4,16,0.00,,BKN220,0.00,VWS V14.01,2013-03-08 07:44:00,
2013-03-08 00:49:00,60.6,14.2,28.44,SW,225,4.0,4.0,16,0.00,,BKN220,0.00,VWS V14.01,2013-03-08 07:49:00,
2013-03-08 00:54:00,60.6,14.2,28.44,ESE,112,0.0,0.0,16,0.00,,BKN220,0.00,VWS V14.01,2013-03-08 07:54:00,
2013-03-08 00:59:00,60.4,14.0,28.44,SE,135,2.7,2.7,16,0.00,,BKN220,0.00,VWS V14.01,2013-03-08 07:59:00,
2013-03-08 01:04:00,60.6,14.2,28.44,North,0,3.4,3.4,16,0.00,,BKN210,0.00,VWS V14.01,2013-03-08 08:04:00,
2013-03-08 01:09:00,60.6,14.2,28.41,ESE,112,4.7,4.7,16,0.00,,BKN210,0.00,VWS V14.01,2013-03-08 08:09:00,
2013-03-08 01:14:00,60.6,14.2,28.41,ESE,112,4.7,6.7,16,0.00,,BKN210,0.00,VWS V14.01,2013-03-08 08:14:00,
2013-03-08 01:19:00,60.6,14.2,28.41,East,90,3.4,4.0,16,0.00,,BKN210,0.00,VWS V14.01,2013-03-08 08:19:00,
2013-03-08 01:24:00,60.6,14.2,28.44,East,90,4.7,4.7,16,0.00,,BKN210,0.00,VWS V14.01,2013-03-08 08:24:00,
2013-03-08 01:29:00,60.6,14.2,28.44,NE,45,3.4,6.0,16,0.00,,BKN210,0.00,VWS V14.01,2013-03-08 08:29:00,
2013-03-08 01:34:00,61.0,14.5,28.44,ESE,112,0.0,2.7,16,0.00,,BKN210,0.00,VWS V14.01,2013-03-08 08:34:00,
2013-03-08 01:39:00,61.0,14.5,28.44,ESE,112,0.0,4.0,16,0.00,,BKN210,0.00,VWS V14.01,2013-03-08 08:39:00,
2013-03-08 01:45:00,61.0,14.5,28.44,SSW,202,0.0,6.0,16,0.00,,BKN210,0.00,VWS V14.01,2013-03-08 08:45:00,
2013-03-08 01:50:00,61.1,14.6,28.44,SW,225,0.0,0.0,16,0.00,,BKN210,0.00,VWS V14.01,2013-03-08 08:50:00,
2013-03-08 01:55:00,61.1,14.6,28.44,SE,135,0.0,4.0,16,0.00,,BKN210,0.00,VWS V14.01,2013-03-08 08:55:00,
2013-03-08 02:00:00,61.1,14.6,28.44,South,180,0.0,0.0,16,0.00,,BKN210,0.00,VWS V14.01,2013-03-08 09:00:00,
2013-03-08 02:05:00,61.1,14.6,28.44,SSW,202,2.7,3.4,16,0.00,,BKN210,0.00,VWS V14.01,2013-03-08 09:05:00,
2013-03-08 02:10:00,61.1,14.6,28.44,SE,135,4.0,4.0,16,0.00,,BKN210,0.00,VWS V14.01,2013-03-08 09:10:00,
2013-03-08 02:15:00,61.0,14.5,28.44,SE,135,8.1,8.1,16,0.00,,BKN210,0.00,VWS V14.01,2013-03-08 09:15:00,
2013-03-08 02:20:00,61.1,14.6,28.44,SE,135,7.4,8.1,16,0.00,,BKN210,0.00,VWS V14.01,2013-03-08 09:20:00,
2013-03-08 02:25:00,61.9,15.2,28.44,SSE,158,10.1,10.1,16,0.00,,BKN210,0.00,VWS V14.01,2013-03-08 09:25:00,
2013-03-08 02:30:00,62.0,15.4,28.44,ESE,112,8.7,11.4,16,0.00,,BKN210,0.00,VWS V14.01,2013-03-08 09:30:00,
2013-03-08 02:35:00,62.2,15.5,28.44,SE,135,4.0,6.7,16,0.00,,BKN210,0.00,VWS V14.01,2013-03-08 09:35:00,
2013-03-08 02:40:00,62.6,14.3,28.44,East,90,6.0,9.4,15,0.00,,BKN210,0.00,VWS V14.01,2013-03-08 09:40:00,
2013-03-08 02:45:00,62.4,14.2,28.44,ESE,112,4.0,4.7,15,0.00,,BKN210,0.00,VWS V14.01,2013-03-08 09:45:00,
2013-03-08 02:50:00,62.2,15.5,28.44,SE,135,11.4,11.4,16,0.00,,BKN210,0.00,VWS V14.01,2013-03-08 09:50:00,
2013-03-08 02:55:00,62.0,15.4,28.44,East,90,16.8,19.5,16,0.00,,BKN210,0.00,VWS V14.01,2013-03-08 09:55:00,
2013-03-08 03:00:00,62.6,18.5,28.44,SE,135,9.4,17.5,18,0.00,,OVC120,0.00,VWS V14.01,2013-03-08 10:00:00,
2013-03-08 03:05:00,62.6,21.0,28.44,SW,225,12.8,22.2,20,0.00,,OVC120,0.00,VWS V14.01,2013-03-08 10:05:00,
2013-03-08 03:10:00,62.0,24.9,28.41,NW,315,13.4,24.2,24,0.00,,OVC120,0.00,VWS V14.01,2013-03-08 10:10:00,
2013-03-08 03:15:00,61.9,24.7,28.41,South,180,18.1,19.5,24,0.00,,OVC120,0.00,VWS V14.01,2013-03-08 10:15:00,
2013-03-08 03:20:00,60.8,31.5,28.41,WSW,248,18.1,18.8,33,0.00,,OVC120,0.00,VWS V14.01,2013-03-08 10:20:00,
2013-03-08 03:25:00,59.3,33.1,28.44,South,180,12.1,34.2,37,0.00,,OVC120,0.00,VWS V14.01,2013-03-08 10:25:00,
2013-03-08 03:30:00,58.6,35.6,28.44,SSE,158,6.0,19.5,42,0.00,,OVC120,0.00,VWS V14.01,2013-03-08 10:30:00,
2013-03-08 03:35:00,57.5,37.5,28.44,South,180,21.5,21.5,47,0.00,,OVC120,0.00,VWS V14.01,2013-03-08 10:35:00,
2013-03-08 03:40:00,56.6,39.2,28.47,SW,225,11.4,11.4,52,0.00,,OVC120,0.00,VWS V14.01,2013-03-08 10:40:00,
2013-03-08 03:46:00,56.5,39.1,28.47,SSW,202,6.0,9.4,52,0.00,,OVC120,0.00,VWS V14.01,2013-03-08 10:46:00,
2013-03-08 03:51:00,56.1,39.2,28.47,NW,315,6.0,7.4,53,0.00,,OVC120,0.00,VWS V14.01,2013-03-08 10:51:00,
2013-03-08 03:56:00,55.7,40.8,28.44,West,270,4.0,6.0,57,0.00,,OVC120,0.00,VWS V14.01,2013-03-08 10:56:00,
2013-03-08 04:01:00,55.6,39.2,28.44,West,270,8.1,8.1,54,0.00,,RA,0.00,VWS V14.01,2013-03-08 11:01:00,
2013-03-08 04:06:00,55.6,40.6,28.44,SW,225,9.4,9.4,57,0.00,,RA,0.00,VWS V14.01,2013-03-08 11:06:00,
2013-03-08 04:11:00,55.2,40.7,28.44,SW,225,4.7,10.1,58,0.00,,RA,0.00,VWS V14.01,2013-03-08 11:11:00,
2013-03-08 04:16:00,55.0,41.0,28.44,WSW,248,4.0,6.0,59,0.00,,RA,0.00,VWS V14.01,2013-03-08 11:16:00,
2013-03-08 04:21:00,55.0,42.2,28.44,SSW,202,4.0,7.4,62,0.00,,RA,0.00,VWS V14.01,2013-03-08 11:21:00,
2013-03-08 04:26:00,55.0,41.8,28.47,WSW,248,11.4,11.4,61,0.00,,RA,0.00,VWS V14.01,2013-03-08 11:26:00,
2013-03-08 04:31:00,54.8,42.1,28.47,SSW,202,11.4,11.4,62,0.00,,RA,0.00,VWS V14.01,2013-03-08 11:31:00,
2013-03-08 04:36:00,54.8,42.9,28.47,SW,225,7.4,12.1,64,0.00,,RA,0.00,VWS V14.01,2013-03-08 11:36:00,
2013-03-08 04:41:00,54.7,43.1,28.44,SE,135,3.4,8.1,65,0.00,,RA,0.00,VWS V14.01,2013-03-08 11:41:00,
2013-03-08 04:46:00,54.7,43.5,28.44,SE,135,19.5,19.5,66,0.00,,RA,0.00,VWS V14.01,2013-03-08 11:46:00,
2013-03-08 04:51:00,54.7,43.5,28.44,ESE,112,17.5,17.5,66,0.00,,RA,0.00,VWS V14.01,2013-03-08 11:51:00,
2013-03-08 04:56:00,54.7,43.9,28.41,East,90,16.1,18.1,67,0.00,,RA,0.00,VWS V14.01,2013-03-08 11:56:00,
2013-03-08 05:01:00,54.8,43.3,28.41,ESE,112,23.5,37.6,65,0.00,,-RA,0.00,VWS V14.01,2013-03-08 12:01:00,
2013-03-08 05:06:00,54.8,43.7,28.41,East,90,22.8,22.8,66,0.00,,-RA,0.00,VWS V14.01,2013-03-08 12:06:00,
2013-03-08 05:11:00,54.8,43.7,28.38,SE,135,11.4,18.8,66,0.00,,-RA,0.00,VWS V14.01,2013-03-08 12:11:00,
2013-03-08 05:17:00,55.0,43.1,28.38,SSW,202,10.7,24.2,64,0.00,,-RA,0.00,VWS V14.01,2013-03-08 12:17:00,
2013-03-08 05:22:00,55.0,42.7,28.38,SSE,158,4.7,4.7,63,0.00,,-RA,0.00,VWS V14.01,2013-03-08 12:22:00,
2013-03-08 05:27:00,55.2,42.4,28.41,SSE,158,6.0,8.7,62,0.00,,-RA,0.00,VWS V14.01,2013-03-08 12:27:00,
2013-03-08 05:32:00,55.4,40.9,28.41,SW,225,10.1,22.8,58,0.00,,-RA,0.00,VWS V14.01,2013-03-08 12:32:00,
2013-03-08 05:37:00,55.6,41.0,28.41,SSE,158,8.1,10.1,58,0.00,,-RA,0.00,VWS V14.01,2013-03-08 12:37:00,
2013-03-08 05:42:00,55.9,40.0,28.41,SSW,202,11.4,11.4,55,0.00,,-RA,0.00,VWS V14.01,2013-03-08 12:42:00,
2013-03-08 05:47:00,56.1,39.7,28.41,ESE,112,11.4,11.4,54,0.00,,-RA,0.00,VWS V14.01,2013-03-08 12:47:00,
2013-03-08 05:52:00,55.9,40.0,28.41,ESE,112,10.1,10.1,55,0.00,,-RA,0.00,VWS V14.01,2013-03-08 12:52:00,
2013-03-08 05:57:00,55.7,40.8,28.44,SSE,158,14.1,14.1,57,0.00,,-RA,0.00,VWS V14.01,2013-03-08 12:57:00,
2013-03-08 06:02:00,55.6,42.3,28.44,SE,135,8.7,10.1,61,0.00,,-RA,0.00,VWS V14.01,2013-03-08 13:02:00,
2013-03-08 06:07:00,55.6,41.5,28.44,SE,135,4.7,6.7,59,0.00,,-RA,0.00,VWS V14.01,2013-03-08 13:07:00,
2013-03-08 06:12:00,55.2,42.4,28.44,ESE,112,8.7,10.7,62,0.00,,-RA,0.00,VWS V14.01,2013-03-08 13:12:00,
2013-03-08 06:17:00,55.2,43.2,28.44,South,180,0.0,10.7,64,0.00,,-RA,0.00,VWS V14.01,2013-03-08 13:17:00,
2013-03-08 06:22:00,54.8,42.9,28.44,South,180,2.7,8.1,64,0.00,,-RA,0.00,VWS V14.01,2013-03-08 13:22:00,
2013-03-08 06:27:00,54.7,41.9,28.41,West,270,0.0,0.0,62,0.00,,-RA,0.00,VWS V14.01,2013-03-08 13:27:00,
2013-03-08 06:32:00,54.7,42.3,28.41,NNW,338,0.0,0.0,63,0.00,,-RA,0.00,VWS V14.01,2013-03-08 13:32:00,
2013-03-08 06:37:00,54.7,43.1,28.41,NW,315,0.0,0.0,65,0.00,,-RA,0.00,VWS V14.01,2013-03-08 13:37:00,
2013-03-08 06:42:00,54.7,43.1,28.44,WSW,248,0.0,0.0,65,0.00,,-RA,0.00,VWS V14.01,2013-03-08 13:42:00,
2013-03-08 06:47:00,54.5,42.6,28.44,South,180,4.7,4.7,64,0.00,,-RA,0.00,VWS V14.01,2013-03-08 13:47:00,
2013-03-08 06:53:00,54.3,43.2,28.44,SSW,202,4.7,6.7,66,0.00,,-RA,0.00,VWS V14.01,2013-03-08 13:53:00,
2013-03-08 06:58:00,54.5,45.3,28.44,SE,135,7.4,7.4,71,0.00,,-RA,0.00,VWS V14.01,2013-03-08 13:58:00,
2013-03-08 07:03:00,54.3,45.1,28.44,ESE,112,8.7,8.7,71,0.00,,-RA,0.00,VWS V14.01,2013-03-08 14:03:00,
2013-03-08 07:08:00,54.3,44.7,28.44,ESE,112,7.4,7.4,70,0.00,,-RA,0.00,VWS V14.01,2013-03-08 14:08:00,
2013-03-08 07:13:00,54.1,44.9,28.44,East,90,14.1,19.5,71,0.00,,-RA,0.00,VWS V14.01,2013-03-08 14:13:00,
2013-03-08 07:18:00,53.9,44.8,28.44,SE,135,9.4,16.8,71,0.00,,-RA,0.00,VWS V14.01,2013-03-08 14:18:00,
2013-03-08 07:23:00,53.9,45.1,28.44,SSE,158,12.8,19.5,72,0.00,,-RA,0.00,VWS V14.01,2013-03-08 14:23:00,
2013-03-08 07:28:00,53.8,45.3,28.44,SE,135,12.8,12.8,73,0.00,,-RA,0.00,VWS V14.01,2013-03-08 14:28:00,
2013-03-08 07:33:00,53.8,45.3,28.44,ENE,68,11.4,19.5,73,0.00,,-RA,0.00,VWS V14.01,2013-03-08 14:33:00,
2013-03-08 07:38:00,53.6,45.5,28.44,ESE,112,9.4,12.1,74,0.00,,-RA,0.00,VWS V14.01,2013-03-08 14:38:00,
2013-03-08 07:43:00,53.6,45.9,28.44,ESE,112,8.7,18.8,75,0.00,,-RA,0.00,VWS V14.01,2013-03-08 14:43:00,
2013-03-08 07:48:00,53.6,45.9,28.44,SE,135,10.7,10.7,75,0.00,,-RA,0.00,VWS V14.01,2013-03-08 14:48:00,
2013-03-08 07:54:00,53.4,45.7,28.44,SE,135,8.7,8.7,75,0.00,,-RA,0.00,VWS V14.01,2013-03-08 14:54:00,
2013-03-08 07:59:00,53.4,45.3,28.44,South,180,8.7,8.7,74,0.00,,-RA,0.00,VWS V14.01,2013-03-08 14:59:00,
2013-03-08 08:04:00,53.4,45.0,28.44,SE,135,6.0,6.0,73,0.00,,OVC090,0.00,VWS V14.01,2013-03-08 15:04:00,
2013-03-08 08:09:00,53.6,44.8,28.47,SE,135,7.4,7.4,72,0.00,,OVC090,0.00,VWS V14.01,2013-03-08 15:09:00,
2013-03-08 08:14:00,53.6,44.8,28.47,SE,135,6.7,6.7,72,0.00,,OVC090,0.00,VWS V14.01,2013-03-08 15:14:00,
2013-03-08 08:19:00,53.4,44.6,28.47,SSE,158,0.0,0.0,72,0.00,,OVC090,0.00,VWS V14.01,2013-03-08 15:19:00,
2013-03-08 08:24:00,53.4,44.6,28.47,SSW,202,4.0,4.0,72,0.00,,OVC090,0.00,VWS V14.01,2013-03-08 15:24:00,
2013-03-08 08:29:00,53.2,44.1,28.50,SE,135,0.0,2.7,71,0.00,,OVC090,0.00,VWS V14.01,2013-03-08 15:29:00,
2013-03-08 08:34:00,53.2,44.8,28.50,SE,135,0.0,4.0,73,0.00,,OVC090,0.00,VWS V14.01,2013-03-08 15:34:00,
2013-03-08 08:39:00,53.4,45.0,28.50,SSE,158,2.7,4.7,73,0.00,,OVC090,0.00,VWS V14.01,2013-03-08 15:39:00,
2013-03-08 08:44:00,53.4,45.0,28.50,SSE,158,4.7,7.4,73,0.00,,OVC090,0.00,VWS V14.01,2013-03-08 15:44:00,
2013-03-08 08:49:00,53.4,45.0,28.50,South,180,0.0,4.7,73,0.00,,OVC090,0.00,VWS V14.01,2013-03-08 15:49:00,
2013-03-08 08:54:00,53.8,45.3,28.50,South,180,4.0,7.4,73,0.00,,OVC090,0.00,VWS V14.01,2013-03-08 15:54:00,
2013-03-08 08:59:00,53.9,45.8,28.50,SE,135,3.4,6.7,74,0.00,,OVC090,0.00,VWS V14.01,2013-03-08 15:59:00,
2013-03-08 09:04:00,53.9,45.8,28.50,SE,135,0.0,2.7,74,0.00,,OVC065,0.00,VWS V14.01,2013-03-08 16:04:00,
2013-03-08 09:09:00,54.1,46.4,28.50,SE,135,4.0,7.4,75,0.39,,OVC065,0.39,VWS V14.01,2013-03-08 16:09:00,
2013-03-08 09:14:00,54.3,46.6,28.50,ESE,112,4.7,9.4,75,0.43,,OVC065,0.43,VWS V14.01,2013-03-08 16:14:00,
2013-03-08 09:19:00,54.3,46.6,28.50,ESE,112,3.4,9.4,75,0.43,,OVC065,0.43,VWS V14.01,2013-03-08 16:19:00,
2013-03-08 09:24:00,54.3,46.2,28.50,SE,135,6.0,8.7,74,0.43,,OVC065,0.43,VWS V14.01,2013-03-08 16:24:00,
2013-03-08 09:30:00,54.3,46.2,28.50,SE,135,12.1,12.1,74,0.43,,OVC065,0.43,VWS V14.01,2013-03-08 16:30:00,
2013-03-08 09:35:00,54.5,46.0,28.50,SSW,202,6.0,6.0,73,0.43,,OVC065,0.43,VWS V14.01,2013-03-08 16:35:00,
2013-03-08 09:40:00,54.7,45.8,28.50,SE,135,11.4,12.1,72,0.43,,OVC065,0.43,VWS V14.01,2013-03-08 16:40:00,
2013-03-08 09:45:00,54.8,46.0,28.50,ESE,112,11.4,11.4,72,0.43,,OVC065,0.43,VWS V14.01,2013-03-08 16:45:00,
2013-03-08 09:50:00,55.2,45.6,28.50,SE,135,4.7,18.1,70,0.43,,OVC065,0.43,VWS V14.01,2013-03-08 16:50:00,
2013-03-08 09:55:00,55.4,45.4,28.47,SSE,158,10.1,17.5,69,0.43,,OVC065,0.43,VWS V14.01,2013-03-08 16:55:00,
2013-03-08 10:00:00,55.4,45.4,28.47,SE,135,9.4,9.4,69,0.43,,OVC065,0.43,VWS V14.01,2013-03-08 17:00:00,
2013-03-08 10:05:00,55.6,45.6,28.47,WSW,248,16.8,16.8,69,0.43,,BKN085,0.43,VWS V14.01,2013-03-08 17:05:00,
2013-03-08 10:10:00,55.7,45.7,28.50,East,90,10.1,14.1,69,0.04,,BKN085,0.43,VWS V14.01,2013-03-08 17:10:00,
2013-03-08 10:15:00,56.3,46.2,28.50,ESE,112,14.8,26.2,69,0.00,,BKN085,0.43,VWS V14.01,2013-03-08 17:15:00,
2013-03-08 10:20:00,56.6,46.6,28.50,SE,135,10.7,22.2,69,0.00,,BKN085,0.43,VWS V14.01,2013-03-08 17:20:00,
2013-03-08 10:25:00,58.3,45.7,28.50,ESE,112,23.5,25.5,63,0.00,,BKN085,0.43,VWS V14.01,2013-03-08 17:25:00,
2013-03-08 10:31:00,59.2,44.4,28.50,ESE,112,13.4,19.5,58,0.00,,BKN085,0.43,VWS V14.01,2013-03-08 17:31:00,
2013-03-08 10:36:00,60.2,43.1,28.50,East,90,10.7,10.7,53,0.00,,BKN085,0.43,VWS V14.01,2013-03-08 17:36:00,
2013-03-08 10:41:00,61.3,42.5,28.47,SSE,158,6.7,7.4,50,0.00,,BKN085,0.43,VWS V14.01,2013-03-08 17:41:00,
2013-03-08 10:46:00,61.9,40.3,28.47,SSE,158,17.5,17.5,45,0.00,,BKN085,0.43,VWS V14.01,2013-03-08 17:46:00,
2013-03-08 10:51:00,62.4,39.0,28.47,SE,135,19.5,25.5,42,0.00,,BKN085,0.43,VWS V14.01,2013-03-08 17:51:00,
2013-03-08 10:56:00,62.4,37.8,28.47,ESE,112,8.7,14.8,40,0.00,,BKN085,0.43,VWS V14.01,2013-03-08 17:56:00,
2013-03-08 11:01:00,61.9,36.0,28.47,East,90,9.4,23.5,38,0.00,,BKN090,0.43,VWS V14.01,2013-03-08 18:01:00,
2013-03-08 11:06:00,62.6,37.3,28.47,WSW,248,10.1,11.4,39,0.00,,BKN090,0.43,VWS V14.01,2013-03-08 18:06:00,
2013-03-08 11:11:00,61.9,36.0,28.47,SW,225,8.7,16.8,38,0.00,,BKN090,0.43,VWS V14.01,2013-03-08 18:11:00,
2013-03-08 11:16:00,62.2,36.3,28.47,SE,135,12.8,12.8,38,0.00,,BKN090,0.43,VWS V14.01,2013-03-08 18:16:00,
2013-03-08 11:21:00,62.0,35.5,28.47,SSW,202,12.8,12.8,37,0.00,,BKN090,0.43,VWS V14.01,2013-03-08 18:21:00,
2013-03-08 11:26:00,61.7,35.2,28.44,SE,135,4.7,12.1,37,0.00,,BKN090,0.43,VWS V14.01,2013-03-08 18:26:00,
2013-03-08 11:31:00,61.7,35.2,28.44,WSW,248,4.7,9.4,37,0.00,,BKN090,0.43,VWS V14.01,2013-03-08 18:31:00,
2013-03-08 11:36:00,61.3,34.8,28.44,ESE,112,11.4,12.1,37,0.00,,BKN090,0.43,VWS V14.01,2013-03-08 18:36:00,
2013-03-08 11:41:00,61.0,35.2,28.44,SW,225,9.4,9.4,38,0.00,,BKN090,0.43,VWS V14.01,2013-03-08 18:41:00,
2013-03-08 11:47:00,61.5,35.7,28.44,SW,225,9.4,13.4,38,0.00,,BKN090,0.43,VWS V14.01,2013-03-08 18:47:00,
2013-03-08 11:52:00,61.9,34.6,28.44,ESE,112,11.4,12.8,36,0.00,,BKN090,0.43,VWS V14.01,2013-03-08 18:52:00,
2013-03-08 11:57:00,61.5,35.0,28.41,SW,225,8.7,12.8,37,0.00,,BKN090,0.43,VWS V14.01,2013-03-08 18:57:00,
2013-03-08 12:02:00,62.6,34.6,28.41,ESE,112,29.5,29.5,35,0.00,,BKN070,0.43,VWS V14.01,2013-03-08 19:02:00,
2013-03-08 12:07:00,63.1,34.3,28.41,East,90,7.4,16.8,34,0.00,,BKN070,0.43,VWS V14.01,2013-03-08 19:07:00,
2013-03-08 12:12:00,62.8,34.0,28.41,SE,135,16.8,16.8,34,0.00,,BKN070,0.43,VWS V14.01,2013-03-08 19:12:00,
2013-03-08 12:18:00,62.2,33.5,28.41,SE,135,16.1,16.1,34,0.00,,BKN070,0.43,VWS V14.01,2013-03-08 19:18:00,
2013-03-08 12:23:00,62.0,33.4,28.41,SSW,202,8.7,10.7,34,0.00,,BKN070,0.43,VWS V14.01,2013-03-08 19:23:00,
2013-03-08 12:28:00,62.2,34.2,28.44,SW,225,16.8,16.8,35,0.00,,BKN070,0.43,VWS V14.01,2013-03-08 19:28:00,
2013-03-08 12:33:00,61.7,34.5,28.44,SE,135,16.8,16.8,36,0.00,,BKN070,0.43,VWS V14.01,2013-03-08 19:33:00,
2013-03-08 12:38:00,60.4,36.6,28.44,East,90,18.1,18.1,41,0.00,,BKN070,0.43,VWS V14.01,2013-03-08 19:38:00,
2013-03-08 12:43:00,59.2,36.1,28.41,NW,315,8.7,12.8,42,0.00,,BKN070,0.43,VWS V14.01,2013-03-08 19:43:00,
2013-03-08 12:48:00,58.4,34.8,28.41,SE,135,8.1,8.7,41,0.00,,BKN070,0.43,VWS V14.01,2013-03-08 19:48:00,
2013-03-08 12:53:00,57.7,36.0,28.41,ESE,112,18.8,27.5,44,0.00,,BKN070,0.43,VWS V14.01,2013-03-08 19:53:00,
2013-03-08 12:58:00,56.6,33.2,28.44,SSW,202,25.5,25.5,41,0.00,,BKN070,0.43,VWS V14.01,2013-03-08 19:58:00,
2013-03-08 13:03:00,56.1,33.9,28.44,SE,135,8.7,19.5,43,0.00,,,0.43,VWS V14.01,2013-03-08 20:03:00,
2013-03-08 13:08:00,56.1,35.1,28.41,ESE,112,16.1,16.1,45,0.00,,,0.43,VWS V14.01,2013-03-08 20:08:00,
2013-03-08 13:14:00,56.6,35.6,28.41,SSE,158,22.8,22.8,45,0.00,,,0.43,VWS V14.01,2013-03-08 20:14:00,
2013-03-08 13:19:00,57.4,36.2,28.41,SSE,158,10.7,10.7,45,0.00,,,0.43,VWS V14.01,2013-03-08 20:19:00,
2013-03-08 13:24:00,58.8,39.2,28.41,South,180,10.1,17.5,48,0.00,,,0.43,VWS V14.01,2013-03-08 20:24:00,
2013-03-08 13:29:00,59.0,39.9,28.41,SE,135,20.1,20.1,49,0.00,,,0.43,VWS V14.01,2013-03-08 20:29:00,
2013-03-08 13:34:00,59.0,39.3,28.41,ESE,112,8.7,17.5,48,0.00,,,0.43,VWS V14.01,2013-03-08 20:34:00,
2013-03-08 13:39:00,59.3,38.6,28.41,SW,225,26.2,26.2,46,0.00,,,0.43,VWS V14.01,2013-03-08 20:39:00,
2013-03-08 13:44:00,61.7,37.1,28.41,SW,225,19.5,19.5,40,0.00,,,0.43,VWS V14.01,2013-03-08 20:44:00,
2013-03-08 13:49:00,60.6,32.1,28.41,WSW,248,18.1,18.1,34,0.00,,,0.43,VWS V14.01,2013-03-08 20:49:00,
2013-03-08 13:54:00,61.0,33.1,28.41,SW,225,8.1,11.4,35,0.00,,,0.43,VWS V14.01,2013-03-08 20:54:00,
2013-03-08 13:59:00,60.6,32.1,28.41,SW,225,9.4,12.1,34,0.00,,,0.43,VWS V14.01,2013-03-08 20:59:00,
2013-03-08 14:04:00,59.2,30.8,28.41,SE,135,10.7,12.1,34,0.00,,BKN070,0.43,VWS V14.01,2013-03-08 21:04:00,
2013-03-08 14:09:00,59.0,32.1,28.38,WSW,248,4.7,8.7,36,0.00,,BKN070,0.43,VWS V14.01,2013-03-08 21:09:00,
2013-03-08 14:15:00,58.6,34.4,28.38,West,270,9.4,9.4,40,0.00,,BKN070,0.43,VWS V14.01,2013-03-08 21:15:00,
2013-03-08 14:20:00,58.6,34.4,28.38,SW,225,7.4,7.4,40,0.00,,BKN070,0.43,VWS V14.01,2013-03-08 21:20:00,
2013-03-08 14:25:00,58.3,35.3,28.38,South,180,9.4,16.1,42,0.00,,BKN070,0.43,VWS V14.01,2013-03-08 21:25:00,
2013-03-08 14:30:00,52.0,27.8,28.38,NNE,22,12.1,22.8,39,0.00,,BKN070,0.43,VWS V14.01,2013-03-08 21:30:00,
2013-03-08 14:35:00,48.2,27.9,28.38,West,270,11.4,11.4,45,0.00,,BKN070,0.43,VWS V14.01,2013-03-08 21:35:00,
2013-03-08 14:40:00,47.5,30.7,28.44,WSW,248,11.4,17.5,52,0.00,,BKN070,0.43,VWS V14.01,2013-03-08 21:40:00,
2013-03-08 14:45:00,47.6,33.6,28.44,WSW,248,12.1,28.2,58,0.25,,BKN070,0.68,VWS V14.01,2013-03-08 21:45:00,
2013-03-08 14:50:00,47.3,34.9,28.44,West,270,16.8,26.9,62,0.25,,BKN070,0.68,VWS V14.01,2013-03-08 21:50:00,
2013-03-08 14:55:00,47.1,36.7,28.47,West,270,12.1,26.2,67,0.25,,BKN070,0.68,VWS V14.01,2013-03-08 21:55:00,
2013-03-08 15:00:00,47.1,36.7,28.47,North,0,8.7,16.1,67,0.25,,-RA,0.68,VWS V14.01,2013-03-08 22:00:00,
2013-03-08 15:05:00,47.3,36.1,28.47,NW,315,11.4,24.2,65,0.25,,-RA,0.68,VWS V14.01,2013-03-08 22:05:00,
2013-03-08 15:10:00,47.3,35.3,28.50,SW,225,19.5,19.5,63,0.25,,-RA,0.68,VWS V14.01,2013-03-08 22:10:00,
2013-03-08 15:15:00,47.3,34.9,28.50,North,0,10.7,22.8,62,0.25,,-RA,0.68,VWS V14.01,2013-03-08 22:15:00,
2013-03-08 15:20:00,47.1,34.8,28.50,NE,45,8.1,19.5,62,0.25,,-RA,0.68,VWS V14.01,2013-03-08 22:20:00,
2013-03-08 15:25:00,47.1,33.1,28.50,East,90,12.1,32.9,58,0.25,,-RA,0.68,VWS V14.01,2013-03-08 22:25:00,
2013-03-08 15:30:00,47.1,33.1,28.50,West,270,19.5,26.2,58,0.25,,-RA,0.68,VWS V14.01,2013-03-08 22:30:00,
2013-03-08 15:36:00,47.3,34.1,28.50,SW,225,9.4,19.5,60,0.25,,-RA,0.68,VWS V14.01,2013-03-08 22:36:00,
2013-03-08 15:41:00,47.5,34.7,28.47,SSW,202,26.2,26.2,61,0.25,,-RA,0.68,VWS V14.01,2013-03-08 22:41:00,
2013-03-08 15:46:00,47.5,34.7,28.47,West,270,16.8,16.8,61,0.00,,-RA,0.68,VWS V14.01,2013-03-08 22:46:00,
2013-03-08 15:51:00,47.5,35.1,28.47,South,180,10.1,10.1,62,0.00,,-RA,0.68,VWS V14.01,2013-03-08 22:51:00,
2013-03-08 15:56:00,47.5,35.5,28.52,NW,315,11.4,11.4,63,0.00,,-RA,0.68,VWS V14.01,2013-03-08 22:56:00,
2013-03-08 16:01:00,47.3,34.1,28.52,NNW,338,0.0,14.1,60,0.00,,-RA,0.68,VWS V14.01,2013-03-08 23:01:00,
2013-03-08 16:06:00,47.3,34.5,28.52,SW,225,0.0,0.0,61,0.00,,-RA,0.68,VWS V14.01,2013-03-08 23:06:00,
2013-03-08 16:11:00,47.5,34.7,28.50,NNW,338,0.0,0.0,61,0.00,,-RA,0.68,VWS V14.01,2013-03-08 23:11:00,
2013-03-08 16:16:00,47.6,34.9,28.50,NNW,338,0.0,0.0,61,0.00,,-RA,0.68,VWS V14.01,2013-03-08 23:16:00,
2013-03-08 16:21:00,48.0,35.2,28.50,NW,315,0.0,0.0,61,0.00,,-RA,0.68,VWS V14.01,2013-03-08 23:21:00,
2013-03-08 16:26:00,48.4,34.7,28.50,NW,315,0.0,0.0,59,0.00,,-RA,0.68,VWS V14.01,2013-03-08 23:26:00,
2013-03-08 16:31:00,48.5,34.9,28.50,NNW,338,4.7,4.7,59,0.00,,-RA,0.68,VWS V14.01,2013-03-08 23:31:00,
2013-03-08 16:36:00,48.9,34.8,28.50,NNW,338,0.0,0.0,58,0.00,,-RA,0.68,VWS V14.01,2013-03-08 23:36:00,
2013-03-08 16:41:00,49.4,37.4,28.50,NW,315,6.7,8.1,63,0.00,,-RA,0.68,VWS V14.01,2013-03-08 23:41:00,
2013-03-08 16:46:00,49.3,35.6,28.50,NNW,338,7.4,10.1,59,0.00,,-RA,0.68,VWS V14.01,2013-03-08 23:46:00,
2013-03-08 16:52:00,49.4,34.9,28.50,NNW,338,2.7,2.7,57,0.00,,-RA,0.68,VWS V14.01,2013-03-08 23:52:00,
2013-03-08 16:57:00,49.3,34.2,28.50,NW,315,6.7,6.7,56,0.00,,-RA,0.68,VWS V14.01,2013-03-08 23:57:00,
2013-03-08 17:02:00,49.3,33.3,28.50,North,0,0.0,0.0,54,0.00,,OVC180,0.68,VWS V14.01,2013-03-09 00:02:00,
2013-03-08 17:07:00,49.1,33.6,28.50,NNW,338,10.1,12.8,55,0.00,,OVC180,0.68,VWS V14.01,2013-03-09 00:07:00,
2013-03-08 17:12:00,49.4,34.4,28.50,NNE,22,6.0,7.4,56,0.00,,OVC180,0.68,VWS V14.01,2013-03-09 00:12:00,
2013-03-08 17:17:00,49.4,34.0,28.50,NW,315,0.0,0.0,55,0.00,,OVC180,0.68,VWS V14.01,2013-03-09 00:17:00,
2013-03-08 17:22:00,49.1,33.6,28.50,NNW,338,7.4,10.7,55,0.00,,OVC180,0.68,VWS V14.01,2013-03-09 00:22:00,
2013-03-08 17:27:00,49.4,34.9,28.50,North,0,0.0,4.7,57,0.00,,OVC180,0.68,VWS V14.01,2013-03-09 00:27:00,
2013-03-08 17:32:00,49.3,33.8,28.50,North,0,8.7,9.4,55,0.00,,OVC180,0.68,VWS V14.01,2013-03-09 00:32:00,
2013-03-08 17:37:00,49.3,32.9,28.50,NNW,338,2.7,4.7,53,0.00,,OVC180,0.68,VWS V14.01,2013-03-09 00:37:00,
2013-03-08 17:42:00,49.3,32.9,28.50,North,0,4.7,9.4,53,0.00,,OVC180,0.68,VWS V14.01,2013-03-09 00:42:00,
2013-03-08 17:48:00,49.4,34.0,28.50,NNW,338,2.7,2.7,55,0.00,,OVC180,0.68,VWS V14.01,2013-03-09 00:48:00,
2013-03-08 17:53:00,49.6,33.7,28.50,North,0,4.0,4.0,54,0.00,,OVC180,0.68,VWS V14.01,2013-03-09 00:53:00,
2013-03-08 17:58:00,49.8,34.3,28.52,NW,315,6.7,6.7,55,0.00,,OVC180,0.68,VWS V14.01,2013-03-09 00:58:00,
2013-03-08 18:03:00,49.6,34.1,28.52,East,90,3.4,12.8,55,0.00,,BKN150,0.68,VWS V14.01,2013-03-09 01:03:00,
2013-03-08 18:08:00,49.3,33.8,28.52,NNW,338,3.4,9.4,55,0.00,,BKN150,0.68,VWS V14.01,2013-03-09 01:08:00,
2013-03-08 18:13:00,48.9,34.3,28.52,WNW,292,8.1,8.1,57,0.00,,BKN150,0.68,VWS V14.01,2013-03-09 01:13:00,
2013-03-08 18:18:00,48.7,34.2,28.52,NW,315,8.1,12.8,57,0.00,,BKN150,0.68,VWS V14.01,2013-03-09 01:18:00,
2013-03-08 18:23:00,48.7,34.2,28.52,NW,315,2.7,8.1,57,0.00,,BKN150,0.68,VWS V14.01,2013-03-09 01:23:00,
2013-03-08 18:28:00,48.5,33.6,28.52,NW,315,7.4,7.4,56,0.00,,BKN150,0.68,VWS V14.01,2013-03-09 01:28:00,
2013-03-08 18:33:00,48.5,33.6,28.52,NW,315,6.7,9.4,56,0.00,,BKN150,0.68,VWS V14.01,2013-03-09 01:33:00,
2013-03-08 18:38:00,48.5,34.0,28.52,WNW,292,0.0,2.7,57,0.00,,BKN150,0.68,VWS V14.01,2013-03-09 01:38:00,
2013-03-08 18:43:00,48.4,34.3,28.52,NE,45,10.7,10.7,58,0.00,,BKN150,0.68,VWS V14.01,2013-03-09 01:43:00,
2013-03-08 18:48:00,48.0,33.9,28.52,East,90,10.1,10.7,58,0.00,,BKN150,0.68,VWS V14.01,2013-03-09 01:48:00,
2013-03-08 18:53:00,48.0,33.9,28.52,NW,315,7.4,7.4,58,0.00,,BKN150,0.68,VWS V14.01,2013-03-09 01:53:00,
2013-03-08 18:58:00,48.0,33.9,28.52,NW,315,2.7,8.1,58,0.00,,BKN150,0.68,VWS V14.01,2013-03-09 01:58:00,
2013-03-08 19:03:00,48.0,33.5,28.52,NNW,338,4.0,7.4,57,0.00,,OVC200,0.68,VWS V14.01,2013-03-09 02:03:00,
2013-03-08 19:08:00,47.8,33.3,28.52,North,0,4.7,6.7,57,0.00,,OVC200,0.68,VWS V14.01,2013-03-09 02:08:00,
2013-03-08 19:13:00,47.8,33.8,28.52,NNW,338,4.7,9.4,58,0.00,,OVC200,0.68,VWS V14.01,2013-03-09 02:13:00,
2013-03-08 19:19:00,47.8,33.8,28.52,SW,225,0.0,0.0,58,0.00,,OVC200,0.68,VWS V14.01,2013-03-09 02:19:00,
2013-03-08 19:24:00,47.6,33.2,28.55,SE,135,0.0,0.0,57,0.00,,OVC200,0.68,VWS V14.01,2013-03-09 02:24:00,
2013-03-08 19:29:00,47.8,34.2,28.55,North,0,6.7,6.7,59,0.00,,OVC200,0.68,VWS V14.01,2013-03-09 02:29:00,
2013-03-08 19:34:00,47.8,35.8,28.55,NW,315,6.0,8.7,63,0.00,,OVC200,0.68,VWS V14.01,2013-03-09 02:34:00,
2013-03-08 19:39:00,47.6,35.3,28.55,NNW,338,0.0,0.0,62,0.00,,OVC200,0.68,VWS V14.01,2013-03-09 02:39:00,
2013-03-08 19:44:00,47.6,36.1,28.55,NNW,338,0.0,3.4,64,0.00,,OVC200,0.68,VWS V14.01,2013-03-09 02:44:00,
2013-03-08 19:49:00,47.3,36.5,28.55,North,0,6.0,11.4,66,0.00,,OVC200,0.68,VWS V14.01,2013-03-09 02:49:00,
2013-03-08 19:54:00,47.3,35.7,28.55,South,180,0.0,0.0,64,0.00,,OVC200,0.68,VWS V14.01,2013-03-09 02:54:00,
2013-03-08 19:59:00,47.3,36.5,28.55,NNW,338,0.0,6.7,66,0.00,,OVC200,0.68,VWS V14.01,2013-03-09 02:59:00,
2013-03-08 20:04:00,47.3,37.3,28.55,NE,45,8.7,8.7,68,0.00,,-RA,0.68,VWS V14.01,2013-03-09 03:04:00,
2013-03-08 20:09:00,47.3,36.9,28.55,NW,315,6.7,8.7,67,0.00,,-RA,0.68,VWS V14.01,2013-03-09 03:09:00,
2013-03-08 20:14:00,47.3,36.5,28.55,NNW,338,0.0,3.4,66,0.00,,-RA,0.68,VWS V14.01,2013-03-09 03:14:00,
2013-03-08 20:19:00,47.3,36.5,28.55,West,270,0.0,4.0,66,0.00,,-RA,0.68,VWS V14.01,2013-03-09 03:19:00,
2013-03-08 20:24:00,46.7,32.3,28.58,NW,315,29.5,29.5,57,0.00,,-RA,0.68,VWS V14.01,2013-03-09 03:24:00,
2013-03-08 20:29:00,45.7,32.6,28.58,NNW,338,2.7,8.7,60,0.10,,-RA,0.78,VWS V14.01,2013-03-09 03:29:00,
2013-03-08 20:34:00,45.5,32.0,28.58,NW,315,0.0,7.4,59,0.10,,-RA,0.78,VWS V14.01,2013-03-09 03:34:00,
2013-03-08 20:39:00,45.3,32.7,28.58,NW,315,0.0,0.0,61,0.10,,-RA,0.78,VWS V14.01,2013-03-09 03:39:00,
2013-03-08 20:44:00,45.5,35.5,28.58,NW,315,3.4,3.4,68,0.10,,-RA,0.78,VWS V14.01,2013-03-09 03:44:00,
2013-03-08 20:49:00,45.5,37.7,28.58,North,0,9.4,9.4,74,0.10,,-RA,0.78,VWS V14.01,2013-03-09 03:49:00,
2013-03-08 20:54:00,45.7,37.9,28.55,NW,315,9.4,12.1,74,0.10,,-RA,0.78,VWS V14.01,2013-03-09 03:54:00,
2013-03-08 20:59:00,45.8,36.6,28.55,NNW,338,12.8,12.8,70,0.10,,-RA,0.78,VWS V14.01,2013-03-09 03:59:00,
2013-03-08 21:04:00,45.7,36.5,28.55,NNW,338,3.4,4.7,70,0.10,,-RA,0.78,VWS V14.01,2013-03-09 04:04:00,
2013-03-08 21:09:00,45.8,37.7,28.55,North,0,7.4,12.8,73,0.10,,-RA,0.78,VWS V14.01,2013-03-09 04:09:00,
2013-03-08 21:14:00,45.8,38.4,28.55,NW,315,6.0,10.7,75,0.10,,-RA,0.78,VWS V14.01,2013-03-09 04:14:00,
2013-03-08 21:19:00,46.0,39.2,28.55,WNW,292,0.0,11.4,77,0.10,,-RA,0.78,VWS V14.01,2013-03-09 04:19:00,
2013-03-08 21:24:00,45.8,39.4,28.55,NNW,338,4.7,10.1,78,0.10,,-RA,0.78,VWS V14.01,2013-03-09 04:24:00,
2013-03-08 21:29:00,46.0,40.2,28.55,NNW,338,7.4,11.4,80,0.10,,-RA,0.78,VWS V14.01,2013-03-09 04:29:00,
2013-03-08 21:35:00,46.0,40.8,28.55,NW,315,6.0,7.4,82,0.00,,-RA,0.78,VWS V14.01,2013-03-09 04:35:00,
2013-03-08 21:40:00,45.8,40.7,28.58,NNW,338,10.1,12.8,82,0.00,,-RA,0.78,VWS V14.01,2013-03-09 04:40:00,
2013-03-08 21:45:00,45.7,40.2,28.58,NNW,338,10.1,16.8,81,0.00,,-RA,0.78,VWS V14.01,2013-03-09 04:45:00,
2013-03-08 21:50:00,45.7,39.5,28.58,NNW,338,10.1,10.1,79,0.00,,-RA,0.78,VWS V14.01,2013-03-09 04:50:00,
2013-03-08 21:55:00,45.5,38.4,28.61,NNW,338,7.4,9.4,76,0.00,,-RA,0.78,VWS V14.01,2013-03-09 04:55:00,
2013-03-08 22:00:00,45.5,38.4,28.61,North,0,9.4,12.1,76,0.00,,-RA,0.78,VWS V14.01,2013-03-09 05:00:00,
2013-03-08 22:01:00,45.5,38.4,28.61,NNW,338,4.7,9.4,76,0.00,,-RA,0.78,VWS V14.01,2013-03-09 05:01:00,
2013-03-08 22:06:00,45.3,38.2,28.61,NNE,22,10.7,12.1,76,0.00,,-RA,0.78,VWS V14.01,2013-03-09 05:06:00,
2013-03-08 22:11:00,45.3,38.2,28.61,NNW,338,9.4,9.4,76,0.00,,-RA,0.78,VWS V14.01,2013-03-09 05:11:00,
2013-03-08 22:16:00,45.1,38.0,28.61,North,0,6.0,12.1,76,0.00,,-RA,0.78,VWS V14.01,2013-03-09 05:16:00,
2013-03-08 22:21:00,44.9,37.5,28.61,NNE,22,12.8,16.1,75,0.00,,-RA,0.78,VWS V14.01,2013-03-09 05:21:00,
2013-03-08 22:26:00,44.9,37.2,28.61,North,0,11.4,11.4,74,0.00,,-RA,0.78,VWS V14.01,2013-03-09 05:26:00,
2013-03-08 22:31:00,44.8,37.0,28.61,NE,45,7.4,10.7,74,0.00,,-RA,0.78,VWS V14.01,2013-03-09 05:31:00,
2013-03-08 22:36:00,44.8,36.7,28.61,SSW,202,0.0,6.7,73,0.00,,-RA,0.78,VWS V14.01,2013-03-09 05:36:00,
2013-03-08 22:41:00,44.8,37.0,28.61,NE,45,3.4,10.1,74,0.00,,-RA,0.78,VWS V14.01,2013-03-09 05:41:00,
2013-03-08 22:46:00,44.8,37.0,28.61,NNW,338,2.7,4.7,74,0.00,,-RA,0.78,VWS V14.01,2013-03-09 05:46:00,
2013-03-08 22:51:00,44.8,37.3,28.61,North,0,6.7,6.7,75,0.00,,-RA,0.78,VWS V14.01,2013-03-09 05:51:00,
2013-03-08 22:57:00,44.6,36.8,28.58,NNW,338,4.7,4.7,74,0.00,,-RA,0.78,VWS V14.01,2013-03-09 05:57:00,
2013-03-08 23:02:00,44.6,36.8,28.58,NNW,338,9.4,9.4,74,0.00,,BKN055,0.78,VWS V14.01,2013-03-09 06:02:00,
2013-03-08 23:07:00,44.6,36.8,28.58,North,0,2.7,3.4,74,0.00,,BKN055,0.78,VWS V14.01,2013-03-09 06:07:00,
2013-03-08 23:12:00,44.8,37.3,28.61,NW,315,0.0,0.0,75,0.00,,BKN055,0.78,VWS V14.01,2013-03-09 06:12:00,
2013-03-08 23:17:00,44.8,37.7,28.61,NNW,338,2.7,2.7,76,0.00,,BKN055,0.78,VWS V14.01,2013-03-09 06:17:00,
2013-03-08 23:22:00,44.8,37.3,28.61,NW,315,0.0,0.0,75,0.00,,BKN055,0.78,VWS V14.01,2013-03-09 06:22:00,
2013-03-08 23:27:00,44.8,37.3,28.58,NW,315,4.0,4.0,75,0.00,,BKN055,0.78,VWS V14.01,2013-03-09 06:27:00,
2013-03-08 23:32:00,44.8,37.3,28.58,NNW,338,0.0,0.0,75,0.00,,BKN055,0.78,VWS V14.01,2013-03-09 06:32:00,
2013-03-08 23:37:00,44.8,37.3,28.58,NNW,338,2.7,2.7,75,0.00,,BKN055,0.78,VWS V14.01,2013-03-09 06:37:00,
2013-03-08 23:42:00,44.8,37.3,28.61,NNW,338,0.0,0.0,75,0.00,,BKN055,0.78,VWS V14.01,2013-03-09 06:42:00,
2013-03-08 23:47:00,44.8,37.0,28.61,NNW,338,0.0,0.0,74,0.00,,BKN055,0.00,VWS V14.01,2013-03-09 06:47:00,
2013-03-08 23:52:00,44.8,37.3,28.61,North,0,0.0,0.0,75,0.00,,BKN055,0.00,VWS V14.01,2013-03-09 06:52:00,
2013-03-08 23:57:00,44.8,37.3,28.61,NNW,338,0.0,3.4,75,0.00,,BKN055,0.00,VWS V14.01,2013-03-09 06:57:00,